sensor_id;sensor_type;location;lat;lon;timestamp;pressure;altitude;pressure_sealevel;temperature;humidity
32083;BME280;18597;48.328;7.932;2024-02-21T00:02:20;100694.38;;;4.31;100.00
32083;BME280;18597;48.328;7.932;2024-02-21T00:04:46;100693.56;;;4.29;100.00
32083;BME280;18597;48.328;7.932;2024-02-21T00:07:11;100687.81;;;4.20;100.00
32083;BME280;18597;48.328;7.932;2024-02-21T00:09:37;100681.53;;;4.22;100.00
32083;BME280;18597;48.328;7.932;2024-02-21T00:12:03;100686.44;;;4.31;100.00
32083;BME280;18597;48.328;7.932;2024-02-21T00:14:30;100681.16;;;4.31;100.00
32083;BME280;18597;48.328;7.932;2024-02-21T00:16:56;100678.69;;;4.27;100.00
32083;BME280;18597;48.328;7.932;2024-02-21T00:19:22;100678.75;;;4.25;100.00
32083;BME280;18597;48.328;7.932;2024-02-21T00:21:48;100682.66;;;4.37;100.00
32083;BME280;18597;48.328;7.932;2024-02-21T00:24:14;100669.38;;;4.38;100.00
32083;BME280;18597;48.328;7.932;2024-02-21T00:26:40;100667.63;;;4.37;100.00
32083;BME280;18597;48.328;7.932;2024-02-21T00:29:05;100660.19;;;4.47;100.00
32083;BME280;18597;48.328;7.932;2024-02-21T00:31:31;100652.28;;;4.45;100.00
32083;BME280;18597;48.328;7.932;2024-02-21T00:33:57;100654.88;;;4.47;100.00
32083;BME280;18597;48.328;7.932;2024-02-21T00:36:23;100650.72;;;4.41;100.00
32083;BME280;18597;48.328;7.932;2024-02-21T00:38:49;100642.63;;;4.44;100.00
32083;BME280;18597;48.328;7.932;2024-02-21T00:41:15;100650.63;;;4.43;100.00
32083;BME280;18597;48.328;7.932;2024-02-21T00:43:41;100648.59;;;4.50;100.00
32083;BME280;18597;48.328;7.932;2024-02-21T00:46:08;100644.94;;;4.52;100.00
32083;BME280;18597;48.328;7.932;2024-02-21T00:48:34;100642.09;;;4.57;100.00
32083;BME280;18597;48.328;7.932;2024-02-21T00:51:00;100629.13;;;4.51;100.00
32083;BME280;18597;48.328;7.932;2024-02-21T00:53:26;100623.25;;;4.44;100.00
32083;BME280;18597;48.328;7.932;2024-02-21T00:55:51;100630.25;;;4.45;100.00
32083;BME280;18597;48.328;7.932;2024-02-21T00:58:17;100618.69;;;4.48;100.00
32083;BME280;18597;48.328;7.932;2024-02-21T01:00:43;100615.19;;;4.47;100.00
32083;BME280;18597;48.328;7.932;2024-02-21T01:03:09;100617.84;;;4.47;100.00
32083;BME280;18597;48.328;7.932;2024-02-21T01:05:35;100611.47;;;4.51;100.00
32083;BME280;18597;48.328;7.932;2024-02-21T01:08:01;100604.38;;;4.52;100.00
32083;BME280;18597;48.328;7.932;2024-02-21T01:10:27;100600.81;;;4.53;100.00
32083;BME280;18597;48.328;7.932;2024-02-21T01:12:52;100595.38;;;4.56;100.00
32083;BME280;18597;48.328;7.932;2024-02-21T01:15:18;100591.66;;;4.60;100.00
32083;BME280;18597;48.328;7.932;2024-02-21T01:17:44;100593.59;;;4.56;100.00
32083;BME280;18597;48.328;7.932;2024-02-21T01:20:10;100588.16;;;4.59;100.00
32083;BME280;18597;48.328;7.932;2024-02-21T01:22:36;100585.84;;;4.52;100.00
32083;BME280;18597;48.328;7.932;2024-02-21T01:25:02;100592.97;;;4.70;100.00
32083;BME280;18597;48.328;7.932;2024-02-21T01:27:28;100576.13;;;4.52;100.00
32083;BME280;18597;48.328;7.932;2024-02-21T01:29:54;100572.28;;;4.59;100.00
32083;BME280;18597;48.328;7.932;2024-02-21T01:32:20;100568.00;;;4.57;100.00
32083;BME280;18597;48.328;7.932;2024-02-21T01:34:47;100566.13;;;4.59;100.00
32083;BME280;18597;48.328;7.932;2024-02-21T01:37:13;100562.91;;;4.52;100.00
32083;BME280;18597;48.328;7.932;2024-02-21T01:39:39;100550.59;;;4.51;100.00
32083;BME280;18597;48.328;7.932;2024-02-21T01:42:04;100537.88;;;4.59;100.00
32083;BME280;18597;48.328;7.932;2024-02-21T01:44:31;100533.28;;;4.44;100.00
32083;BME280;18597;48.328;7.932;2024-02-21T01:46:57;100532.00;;;4.53;100.00
32083;BME280;18597;48.328;7.932;2024-02-21T01:49:23;100528.50;;;4.52;100.00
32083;BME280;18597;48.328;7.932;2024-02-21T01:51:49;100526.84;;;4.50;100.00
32083;BME280;18597;48.328;7.932;2024-02-21T01:54:17;100519.63;;;4.53;100.00
32083;BME280;18597;48.328;7.932;2024-02-21T01:56:45;100517.56;;;4.41;100.00
32083;BME280;18597;48.328;7.932;2024-02-21T01:59:12;100523.41;;;4.29;100.00
32083;BME280;18597;48.328;7.932;2024-02-21T02:01:39;100511.34;;;4.42;100.00
32083;BME280;18597;48.328;7.932;2024-02-21T02:04:06;100508.47;;;4.28;100.00
32083;BME280;18597;48.328;7.932;2024-02-21T02:06:32;100521.88;;;4.23;100.00
32083;BME280;18597;48.328;7.932;2024-02-21T02:08:58;100518.91;;;4.31;100.00
32083;BME280;18597;48.328;7.932;2024-02-21T02:11:24;100506.50;;;4.12;100.00
32083;BME280;18597;48.328;7.932;2024-02-21T02:13:50;100511.38;;;4.03;100.00
32083;BME280;18597;48.328;7.932;2024-02-21T02:16:15;100513.94;;;4.04;100.00
32083;BME280;18597;48.328;7.932;2024-02-21T02:18:41;100517.78;;;3.97;100.00
32083;BME280;18597;48.328;7.932;2024-02-21T02:21:15;100522.47;;;3.90;100.00
32083;BME280;18597;48.328;7.932;2024-02-21T02:23:48;100517.91;;;3.94;100.00
32083;BME280;18597;48.328;7.932;2024-02-21T02:26:14;100506.53;;;3.92;100.00
32083;BME280;18597;48.328;7.932;2024-02-21T02:28:40;100506.41;;;3.95;100.00
32083;BME280;18597;48.328;7.932;2024-02-21T02:31:06;100504.19;;;4.25;100.00
32083;BME280;18597;48.328;7.932;2024-02-21T02:33:32;100498.50;;;4.14;100.00
32083;BME280;18597;48.328;7.932;2024-02-21T02:35:58;100503.53;;;4.20;100.00
32083;BME280;18597;48.328;7.932;2024-02-21T02:38:24;100499.00;;;4.22;100.00
32083;BME280;18597;48.328;7.932;2024-02-21T02:40:50;100484.81;;;4.25;100.00
32083;BME280;18597;48.328;7.932;2024-02-21T02:43:16;100470.25;;;4.14;100.00
32083;BME280;18597;48.328;7.932;2024-02-21T02:45:42;100474.22;;;4.25;100.00
32083;BME280;18597;48.328;7.932;2024-02-21T02:48:08;100464.47;;;4.06;100.00
32083;BME280;18597;48.328;7.932;2024-02-21T02:50:34;100462.84;;;4.04;100.00
32083;BME280;18597;48.328;7.932;2024-02-21T02:52:59;100455.59;;;4.07;100.00
32083;BME280;18597;48.328;7.932;2024-02-21T02:55:25;100459.88;;;3.91;100.00
32083;BME280;18597;48.328;7.932;2024-02-21T02:57:51;100456.72;;;3.83;100.00
32083;BME280;18597;48.328;7.932;2024-02-21T03:00:17;100455.00;;;3.82;100.00
32083;BME280;18597;48.328;7.932;2024-02-21T03:02:45;100442.84;;;3.78;100.00
32083;BME280;18597;48.328;7.932;2024-02-21T03:05:15;100444.78;;;3.74;100.00
32083;BME280;18597;48.328;7.932;2024-02-21T03:07:41;100443.91;;;3.94;100.00
32083;BME280;18597;48.328;7.932;2024-02-21T03:10:08;100437.69;;;3.75;100.00
32083;BME280;18597;48.328;7.932;2024-02-21T03:12:34;100436.19;;;3.69;100.00
32083;BME280;18597;48.328;7.932;2024-02-21T03:15:00;100430.84;;;3.71;100.00
32083;BME280;18597;48.328;7.932;2024-02-21T03:17:26;100426.75;;;3.64;100.00
32083;BME280;18597;48.328;7.932;2024-02-21T03:19:53;100420.22;;;3.72;100.00
32083;BME280;18597;48.328;7.932;2024-02-21T03:22:21;100417.16;;;3.61;100.00
32083;BME280;18597;48.328;7.932;2024-02-21T03:24:47;100398.75;;;3.59;100.00
32083;BME280;18597;48.328;7.932;2024-02-21T03:27:13;100397.97;;;3.76;100.00
32083;BME280;18597;48.328;7.932;2024-02-21T03:29:39;100403.00;;;3.82;100.00
32083;BME280;18597;48.328;7.932;2024-02-21T03:32:05;100403.59;;;3.89;100.00
32083;BME280;18597;48.328;7.932;2024-02-21T03:34:31;100392.16;;;3.88;100.00
32083;BME280;18597;48.328;7.932;2024-02-21T03:36:57;100393.88;;;3.89;100.00
32083;BME280;18597;48.328;7.932;2024-02-21T03:39:24;100390.88;;;3.78;100.00
32083;BME280;18597;48.328;7.932;2024-02-21T03:41:50;100395.25;;;3.78;100.00
32083;BME280;18597;48.328;7.932;2024-02-21T03:44:16;100389.28;;;3.74;100.00
32083;BME280;18597;48.328;7.932;2024-02-21T03:46:42;100382.59;;;3.86;100.00
32083;BME280;18597;48.328;7.932;2024-02-21T03:49:08;100377.41;;;3.83;100.00
32083;BME280;18597;48.328;7.932;2024-02-21T03:51:34;100373.41;;;3.74;100.00
32083;BME280;18597;48.328;7.932;2024-02-21T03:54:00;100371.78;;;3.72;100.00
32083;BME280;18597;48.328;7.932;2024-02-21T03:56:26;100371.97;;;3.67;100.00
32083;BME280;18597;48.328;7.932;2024-02-21T03:58:53;100371.28;;;3.64;100.00
32083;BME280;18597;48.328;7.932;2024-02-21T04:01:18;100376.69;;;3.60;100.00
32083;BME280;18597;48.328;7.932;2024-02-21T04:03:44;100374.78;;;3.64;100.00
32083;BME280;18597;48.328;7.932;2024-02-21T04:06:10;100367.72;;;3.44;100.00
32083;BME280;18597;48.328;7.932;2024-02-21T04:08:36;100363.91;;;3.31;100.00
32083;BME280;18597;48.328;7.932;2024-02-21T04:11:02;100372.25;;;3.22;100.00
32083;BME280;18597;48.328;7.932;2024-02-21T04:13:28;100368.16;;;3.15;100.00
32083;BME280;18597;48.328;7.932;2024-02-21T04:15:54;100365.09;;;3.24;100.00
32083;BME280;18597;48.328;7.932;2024-02-21T04:18:20;100360.72;;;3.43;100.00
32083;BME280;18597;48.328;7.932;2024-02-21T04:20:46;100361.75;;;3.41;100.00
32083;BME280;18597;48.328;7.932;2024-02-21T04:23:12;100354.78;;;3.38;100.00
32083;BME280;18597;48.328;7.932;2024-02-21T04:25:38;100354.34;;;3.28;100.00
32083;BME280;18597;48.328;7.932;2024-02-21T04:28:04;100356.50;;;3.39;100.00
32083;BME280;18597;48.328;7.932;2024-02-21T04:30:30;100370.53;;;3.21;100.00
32083;BME280;18597;48.328;7.932;2024-02-21T04:32:56;100374.63;;;3.08;100.00
32083;BME280;18597;48.328;7.932;2024-02-21T04:35:22;100368.72;;;3.01;100.00
32083;BME280;18597;48.328;7.932;2024-02-21T04:37:48;100363.13;;;3.09;100.00
32083;BME280;18597;48.328;7.932;2024-02-21T04:40:14;100354.69;;;3.00;100.00
32083;BME280;18597;48.328;7.932;2024-02-21T04:42:40;100351.66;;;2.89;100.00
32083;BME280;18597;48.328;7.932;2024-02-21T04:45:06;100348.78;;;2.94;100.00
32083;BME280;18597;48.328;7.932;2024-02-21T04:47:32;100352.22;;;2.75;100.00
32083;BME280;18597;48.328;7.932;2024-02-21T04:49:58;100347.09;;;2.93;100.00
32083;BME280;18597;48.328;7.932;2024-02-21T04:52:24;100346.75;;;3.00;100.00
32083;BME280;18597;48.328;7.932;2024-02-21T04:54:49;100337.09;;;2.79;100.00
32083;BME280;18597;48.328;7.932;2024-02-21T04:57:16;100328.09;;;2.85;100.00
32083;BME280;18597;48.328;7.932;2024-02-21T04:59:44;100325.78;;;2.77;100.00
32083;BME280;18597;48.328;7.932;2024-02-21T05:02:11;100319.09;;;2.68;100.00
32083;BME280;18597;48.328;7.932;2024-02-21T05:04:37;100314.66;;;2.48;100.00
32083;BME280;18597;48.328;7.932;2024-02-21T05:07:04;100319.34;;;2.42;100.00
32083;BME280;18597;48.328;7.932;2024-02-21T05:09:30;100325.72;;;2.36;100.00
32083;BME280;18597;48.328;7.932;2024-02-21T05:11:57;100329.19;;;2.59;100.00
32083;BME280;18597;48.328;7.932;2024-02-21T05:14:25;100336.06;;;2.41;100.00
32083;BME280;18597;48.328;7.932;2024-02-21T05:16:53;100324.56;;;2.43;100.00
32083;BME280;18597;48.328;7.932;2024-02-21T05:19:18;100321.22;;;2.60;100.00
32083;BME280;18597;48.328;7.932;2024-02-21T05:21:44;100318.09;;;2.71;100.00
32083;BME280;18597;48.328;7.932;2024-02-21T05:24:10;100317.00;;;2.76;100.00
32083;BME280;18597;48.328;7.932;2024-02-21T05:26:36;100313.91;;;2.67;100.00
32083;BME280;18597;48.328;7.932;2024-02-21T05:29:02;100318.88;;;2.53;100.00
32083;BME280;18597;48.328;7.932;2024-02-21T05:31:57;100303.25;;;2.48;100.00
32083;BME280;18597;48.328;7.932;2024-02-21T05:34:23;100307.16;;;2.60;100.00
32083;BME280;18597;48.328;7.932;2024-02-21T05:36:49;100313.19;;;2.41;100.00
32083;BME280;18597;48.328;7.932;2024-02-21T05:39:17;100315.03;;;2.39;100.00
32083;BME280;18597;48.328;7.932;2024-02-21T05:41:43;100305.53;;;2.57;100.00
32083;BME280;18597;48.328;7.932;2024-02-21T05:44:11;100299.91;;;2.44;100.00
32083;BME280;18597;48.328;7.932;2024-02-21T05:46:37;100298.72;;;2.52;100.00
32083;BME280;18597;48.328;7.932;2024-02-21T05:49:02;100307.34;;;2.55;100.00
32083;BME280;18597;48.328;7.932;2024-02-21T05:51:32;100303.63;;;2.39;100.00
32083;BME280;18597;48.328;7.932;2024-02-21T05:53:58;100309.91;;;2.36;100.00
32083;BME280;18597;48.328;7.932;2024-02-21T05:56:24;100311.00;;;2.31;100.00
32083;BME280;18597;48.328;7.932;2024-02-21T05:58:50;100299.09;;;2.42;100.00
32083;BME280;18597;48.328;7.932;2024-02-21T06:01:15;100293.53;;;2.48;100.00
32083;BME280;18597;48.328;7.932;2024-02-21T06:03:41;100304.78;;;2.54;100.00
32083;BME280;18597;48.328;7.932;2024-02-21T06:06:07;100303.69;;;2.37;100.00
32083;BME280;18597;48.328;7.932;2024-02-21T06:08:33;100298.25;;;2.42;100.00
32083;BME280;18597;48.328;7.932;2024-02-21T06:10:59;100298.81;;;2.48;100.00
32083;BME280;18597;48.328;7.932;2024-02-21T06:13:24;100293.56;;;2.69;100.00
32083;BME280;18597;48.328;7.932;2024-02-21T06:15:51;100291.19;;;2.63;100.00
32083;BME280;18597;48.328;7.932;2024-02-21T06:18:18;100284.53;;;2.54;100.00
32083;BME280;18597;48.328;7.932;2024-02-21T06:20:44;100268.44;;;2.60;100.00
32083;BME280;18597;48.328;7.932;2024-02-21T06:23:12;100277.72;;;2.48;100.00
32083;BME280;18597;48.328;7.932;2024-02-21T06:25:38;100272.63;;;2.66;100.00
32083;BME280;18597;48.328;7.932;2024-02-21T06:28:05;100277.06;;;2.64;100.00
32083;BME280;18597;48.328;7.932;2024-02-21T06:30:31;100274.09;;;2.71;100.00
32083;BME280;18597;48.328;7.932;2024-02-21T06:32:57;100262.19;;;2.63;100.00
32083;BME280;18597;48.328;7.932;2024-02-21T06:35:24;100267.53;;;2.82;100.00
32083;BME280;18597;48.328;7.932;2024-02-21T06:37:51;100272.13;;;2.76;100.00
32083;BME280;18597;48.328;7.932;2024-02-21T06:40:20;100269.84;;;2.69;100.00
32083;BME280;18597;48.328;7.932;2024-02-21T06:42:46;100279.72;;;2.64;100.00
32083;BME280;18597;48.328;7.932;2024-02-21T06:45:12;100275.44;;;2.82;100.00
32083;BME280;18597;48.328;7.932;2024-02-21T06:47:38;100273.94;;;3.15;100.00
32083;BME280;18597;48.328;7.932;2024-02-21T06:50:04;100267.97;;;3.30;100.00
32083;BME280;18597;48.328;7.932;2024-02-21T06:52:30;100260.91;;;3.31;100.00
32083;BME280;18597;48.328;7.932;2024-02-21T06:54:56;100262.69;;;3.30;100.00
32083;BME280;18597;48.328;7.932;2024-02-21T06:57:23;100252.19;;;3.29;100.00
32083;BME280;18597;48.328;7.932;2024-02-21T06:59:49;100246.56;;;3.37;100.00
32083;BME280;18597;48.328;7.932;2024-02-21T07:02:15;100243.22;;;3.33;100.00
32083;BME280;18597;48.328;7.932;2024-02-21T07:04:40;100245.41;;;3.23;100.00
32083;BME280;18597;48.328;7.932;2024-02-21T07:07:06;100250.41;;;3.29;100.00
32083;BME280;18597;48.328;7.932;2024-02-21T07:09:32;100242.22;;;3.36;100.00
32083;BME280;18597;48.328;7.932;2024-02-21T07:11:58;100239.53;;;3.56;100.00
32083;BME280;18597;48.328;7.932;2024-02-21T07:14:24;100247.28;;;3.59;100.00
32083;BME280;18597;48.328;7.932;2024-02-21T07:16:51;100247.41;;;3.75;100.00
32083;BME280;18597;48.328;7.932;2024-02-21T07:19:17;100255.34;;;3.94;100.00
32083;BME280;18597;48.328;7.932;2024-02-21T07:21:42;100252.66;;;4.30;100.00
32083;BME280;18597;48.328;7.932;2024-02-21T07:24:09;100253.75;;;4.60;100.00
32083;BME280;18597;48.328;7.932;2024-02-21T07:26:35;100251.84;;;4.97;100.00
32083;BME280;18597;48.328;7.932;2024-02-21T07:29:00;100257.00;;;5.33;100.00
32083;BME280;18597;48.328;7.932;2024-02-21T07:31:26;100252.16;;;5.57;100.00
32083;BME280;18597;48.328;7.932;2024-02-21T07:33:52;100247.53;;;5.76;100.00
32083;BME280;18597;48.328;7.932;2024-02-21T07:36:29;100250.88;;;5.96;100.00
32083;BME280;18597;48.328;7.932;2024-02-21T07:38:56;100248.38;;;6.24;100.00
32083;BME280;18597;48.328;7.932;2024-02-21T07:41:22;100239.16;;;6.46;100.00
32083;BME280;18597;48.328;7.932;2024-02-21T07:43:48;100235.59;;;6.61;100.00
32083;BME280;18597;48.328;7.932;2024-02-21T07:46:15;100238.28;;;6.75;100.00
32083;BME280;18597;48.328;7.932;2024-02-21T07:48:41;100245.97;;;6.80;100.00
32083;BME280;18597;48.328;7.932;2024-02-21T07:51:07;100236.13;;;6.82;100.00
32083;BME280;18597;48.328;7.932;2024-02-21T07:53:33;100237.38;;;6.90;100.00
32083;BME280;18597;48.328;7.932;2024-02-21T07:55:59;100237.09;;;6.81;100.00
32083;BME280;18597;48.328;7.932;2024-02-21T07:58:25;100236.03;;;6.83;100.00
32083;BME280;18597;48.328;7.932;2024-02-21T08:00:51;100229.78;;;6.99;100.00
32083;BME280;18597;48.328;7.932;2024-02-21T08:03:16;100224.19;;;7.17;100.00
32083;BME280;18597;48.328;7.932;2024-02-21T08:05:43;100226.84;;;7.17;100.00
32083;BME280;18597;48.328;7.932;2024-02-21T08:08:09;100223.59;;;6.84;100.00
32083;BME280;18597;48.328;7.932;2024-02-21T08:10:35;100223.38;;;6.58;100.00
32083;BME280;18597;48.328;7.932;2024-02-21T08:13:01;100223.06;;;6.49;100.00
32083;BME280;18597;48.328;7.932;2024-02-21T08:15:27;100218.44;;;6.22;100.00
32083;BME280;18597;48.328;7.932;2024-02-21T08:17:55;100212.53;;;6.17;100.00
32083;BME280;18597;48.328;7.932;2024-02-21T08:20:25;100202.31;;;6.25;100.00
32083;BME280;18597;48.328;7.932;2024-02-21T08:22:52;100206.69;;;6.26;100.00
32083;BME280;18597;48.328;7.932;2024-02-21T08:25:17;100195.31;;;6.24;100.00
32083;BME280;18597;48.328;7.932;2024-02-21T08:27:43;100195.69;;;6.02;100.00
32083;BME280;18597;48.328;7.932;2024-02-21T08:30:10;100194.25;;;5.97;100.00
32083;BME280;18597;48.328;7.932;2024-02-21T08:32:36;100188.69;;;6.01;100.00
32083;BME280;18597;48.328;7.932;2024-02-21T08:35:03;100182.63;;;5.83;100.00
32083;BME280;18597;48.328;7.932;2024-02-21T08:37:30;100179.47;;;5.93;100.00
32083;BME280;18597;48.328;7.932;2024-02-21T08:39:56;100170.81;;;6.35;100.00
32083;BME280;18597;48.328;7.932;2024-02-21T08:42:22;100166.28;;;6.80;100.00
32083;BME280;18597;48.328;7.932;2024-02-21T08:44:48;100170.00;;;6.77;100.00
32083;BME280;18597;48.328;7.932;2024-02-21T08:47:14;100169.16;;;6.91;100.00
32083;BME280;18597;48.328;7.932;2024-02-21T08:49:40;100168.78;;;7.11;100.00
32083;BME280;18597;48.328;7.932;2024-02-21T08:52:06;100164.66;;;7.48;100.00
32083;BME280;18597;48.328;7.932;2024-02-21T08:54:32;100165.09;;;7.82;100.00
32083;BME280;18597;48.328;7.932;2024-02-21T08:56:59;100160.22;;;7.62;100.00
32083;BME280;18597;48.328;7.932;2024-02-21T08:59:25;100162.28;;;7.44;100.00
32083;BME280;18597;48.328;7.932;2024-02-21T09:01:52;100160.59;;;7.56;100.00
32083;BME280;18597;48.328;7.932;2024-02-21T09:04:18;100153.63;;;7.82;100.00
32083;BME280;18597;48.328;7.932;2024-02-21T09:06:45;100143.38;;;8.15;100.00
32083;BME280;18597;48.328;7.932;2024-02-21T09:09:12;100147.31;;;8.10;100.00
32083;BME280;18597;48.328;7.932;2024-02-21T09:11:38;100143.84;;;8.34;100.00
32083;BME280;18597;48.328;7.932;2024-02-21T09:14:05;100142.28;;;8.45;100.00
32083;BME280;18597;48.328;7.932;2024-02-21T09:16:32;100140.47;;;8.45;100.00
32083;BME280;18597;48.328;7.932;2024-02-21T09:18:58;100136.00;;;8.46;100.00
32083;BME280;18597;48.328;7.932;2024-02-21T09:21:25;100134.63;;;8.78;100.00
32083;BME280;18597;48.328;7.932;2024-02-21T09:23:50;100137.25;;;9.16;100.00
32083;BME280;18597;48.328;7.932;2024-02-21T09:26:16;100129.03;;;9.43;100.00
32083;BME280;18597;48.328;7.932;2024-02-21T09:28:44;100130.72;;;9.81;100.00
32083;BME280;18597;48.328;7.932;2024-02-21T09:31:10;100127.19;;;10.40;100.00
32083;BME280;18597;48.328;7.932;2024-02-21T09:33:36;100120.81;;;10.87;100.00
32083;BME280;18597;48.328;7.932;2024-02-21T09:36:03;100110.34;;;11.29;100.00
32083;BME280;18597;48.328;7.932;2024-02-21T09:38:31;100111.22;;;11.73;100.00
32083;BME280;18597;48.328;7.932;2024-02-21T09:41:15;100088.16;;;11.92;100.00
32083;BME280;18597;48.328;7.932;2024-02-21T09:43:42;100093.59;;;12.23;100.00
32083;BME280;18597;48.328;7.932;2024-02-21T09:46:17;100082.41;;;12.39;94.21
32083;BME280;18597;48.328;7.932;2024-02-21T09:51:57;100082.34;;;11.87;100.00
32083;BME280;18597;48.328;7.932;2024-02-21T09:54:28;100076.31;;;12.27;100.00
32083;BME280;18597;48.328;7.932;2024-02-21T09:56:54;100070.97;;;12.58;100.00
32083;BME280;18597;48.328;7.932;2024-02-21T09:59:19;100071.19;;;12.75;98.07
32083;BME280;18597;48.328;7.932;2024-02-21T10:01:45;100066.06;;;12.93;96.97
32083;BME280;18597;48.328;7.932;2024-02-21T10:04:12;100056.50;;;13.10;95.92
32083;BME280;18597;48.328;7.932;2024-02-21T10:06:39;100061.19;;;13.18;94.10
32083;BME280;18597;48.328;7.932;2024-02-21T10:09:06;100052.88;;;13.21;89.72
32083;BME280;18597;48.328;7.932;2024-02-21T10:11:32;100052.78;;;13.32;85.16
32083;BME280;18597;48.328;7.932;2024-02-21T10:14:05;100036.00;;;13.40;75.28
32083;BME280;18597;48.328;7.932;2024-02-21T10:16:31;100028.50;;;13.63;72.87
32083;BME280;18597;48.328;7.932;2024-02-21T10:18:59;100024.41;;;13.78;72.38
32083;BME280;18597;48.328;7.932;2024-02-21T10:21:25;100019.59;;;14.01;68.52
32083;BME280;18597;48.328;7.932;2024-02-21T10:23:51;100029.31;;;14.21;71.74
32083;BME280;18597;48.328;7.932;2024-02-21T10:26:19;100026.88;;;14.47;68.65
32083;BME280;18597;48.328;7.932;2024-02-21T10:28:46;100023.59;;;14.53;61.59
32083;BME280;18597;48.328;7.932;2024-02-21T10:31:29;100017.22;;;14.44;60.33
32083;BME280;18597;48.328;7.932;2024-02-21T10:34:00;100013.53;;;14.55;58.93
32083;BME280;18597;48.328;7.932;2024-02-21T10:36:29;99997.69;;;14.80;61.71
32083;BME280;18597;48.328;7.932;2024-02-21T10:38:55;99991.91;;;15.02;60.01
32083;BME280;18597;48.328;7.932;2024-02-21T10:41:23;99989.06;;;15.04;55.45
32083;BME280;18597;48.328;7.932;2024-02-21T10:43:53;99986.94;;;15.07;56.51
32083;BME280;18597;48.328;7.932;2024-02-21T10:46:22;99978.44;;;15.12;53.33
32083;BME280;18597;48.328;7.932;2024-02-21T10:49:07;99976.34;;;15.06;61.53
32083;BME280;18597;48.328;7.932;2024-02-21T10:51:39;99983.16;;;15.00;60.01
32083;BME280;18597;48.328;7.932;2024-02-21T10:54:39;99969.59;;;15.19;55.13
32083;BME280;18597;48.328;7.932;2024-02-21T10:57:09;99973.81;;;15.40;53.24
32083;BME280;18597;48.328;7.932;2024-02-21T10:59:37;99971.53;;;15.63;52.47
32083;BME280;18597;48.328;7.932;2024-02-21T11:02:05;99962.13;;;15.67;48.76
32083;BME280;18597;48.328;7.932;2024-02-21T11:04:33;99963.50;;;15.71;46.94
32083;BME280;18597;48.328;7.932;2024-02-21T11:07:04;99958.28;;;15.87;46.88
32083;BME280;18597;48.328;7.932;2024-02-21T11:09:32;99957.59;;;16.11;48.12
32083;BME280;18597;48.328;7.932;2024-02-21T11:12:01;99946.41;;;16.32;49.70
32083;BME280;18597;48.328;7.932;2024-02-21T11:14:28;99944.91;;;16.37;47.97
32083;BME280;18597;48.328;7.932;2024-02-21T11:16:54;99935.19;;;16.45;46.87
32083;BME280;18597;48.328;7.932;2024-02-21T11:19:24;99930.22;;;16.32;47.69
32083;BME280;18597;48.328;7.932;2024-02-21T11:21:52;99926.97;;;16.20;48.07
32083;BME280;18597;48.328;7.932;2024-02-21T11:24:31;99923.28;;;16.21;46.79
32083;BME280;18597;48.328;7.932;2024-02-21T11:27:15;99909.16;;;16.27;47.00
32083;BME280;18597;48.328;7.932;2024-02-21T11:29:46;99903.19;;;16.16;46.26
32083;BME280;18597;48.328;7.932;2024-02-21T11:32:17;99890.28;;;16.27;46.90
32083;BME280;18597;48.328;7.932;2024-02-21T11:35:03;99882.13;;;16.11;46.35
32083;BME280;18597;48.328;7.932;2024-02-21T11:37:33;99884.56;;;15.96;46.97
32083;BME280;18597;48.328;7.932;2024-02-21T11:40:00;99876.72;;;16.11;45.11
32083;BME280;18597;48.328;7.932;2024-02-21T11:42:27;99875.88;;;16.11;42.95
32083;BME280;18597;48.328;7.932;2024-02-21T11:44:54;99862.47;;;16.27;42.72
32083;BME280;18597;48.328;7.932;2024-02-21T11:47:22;99858.81;;;16.36;44.93
32083;BME280;18597;48.328;7.932;2024-02-21T11:49:49;99851.91;;;16.42;44.91
32083;BME280;18597;48.328;7.932;2024-02-21T11:52:21;99841.09;;;16.25;45.43
32083;BME280;18597;48.328;7.932;2024-02-21T11:54:48;99838.59;;;16.40;45.05
32083;BME280;18597;48.328;7.932;2024-02-21T11:57:14;99834.94;;;16.49;45.08
32083;BME280;18597;48.328;7.932;2024-02-21T11:59:40;99829.88;;;16.54;44.07
32083;BME280;18597;48.328;7.932;2024-02-21T12:02:06;99829.38;;;16.59;43.78
32083;BME280;18597;48.328;7.932;2024-02-21T12:04:33;99821.31;;;16.67;43.01
32083;BME280;18597;48.328;7.932;2024-02-21T12:06:59;99815.66;;;16.86;42.47
32083;BME280;18597;48.328;7.932;2024-02-21T12:09:26;99809.25;;;16.96;42.04
32083;BME280;18597;48.328;7.932;2024-02-21T12:12:01;99800.91;;;16.56;39.05
32083;BME280;18597;48.328;7.932;2024-02-21T12:14:29;99795.97;;;16.44;39.83
32083;BME280;18597;48.328;7.932;2024-02-21T12:16:56;99791.41;;;16.44;40.50
32083;BME280;18597;48.328;7.932;2024-02-21T12:19:22;99791.63;;;16.59;40.14
32083;BME280;18597;48.328;7.932;2024-02-21T12:21:49;99779.19;;;16.74;40.53
32083;BME280;18597;48.328;7.932;2024-02-21T12:24:25;99771.44;;;17.04;41.79
32083;BME280;18597;48.328;7.932;2024-02-21T12:26:52;99765.72;;;17.23;41.18
32083;BME280;18597;48.328;7.932;2024-02-21T12:29:20;99771.09;;;17.31;38.66
32083;BME280;18597;48.328;7.932;2024-02-21T12:31:47;99775.09;;;17.43;37.66
32083;BME280;18597;48.328;7.932;2024-02-21T12:34:14;99773.75;;;17.56;38.93
32083;BME280;18597;48.328;7.932;2024-02-21T12:36:42;99767.31;;;17.57;37.67
32083;BME280;18597;48.328;7.932;2024-02-21T12:39:09;99764.63;;;17.57;36.29
32083;BME280;18597;48.328;7.932;2024-02-21T12:41:36;99754.19;;;17.54;37.32
32083;BME280;18597;48.328;7.932;2024-02-21T12:44:05;99749.34;;;16.92;39.21
32083;BME280;18597;48.328;7.932;2024-02-21T12:46:34;99740.59;;;16.90;41.02
32083;BME280;18597;48.328;7.932;2024-02-21T12:49:00;99735.34;;;16.97;40.29
32083;BME280;18597;48.328;7.932;2024-02-21T12:51:26;99731.13;;;17.02;40.00
32083;BME280;18597;48.328;7.932;2024-02-21T12:53:52;99721.00;;;17.04;39.61
32083;BME280;18597;48.328;7.932;2024-02-21T12:56:18;99712.41;;;16.92;39.15